Open Full Screen Window  High Contrast Mode
Wind Gusting 00 knots
05
December 22, 2014 11:16 AM EST
Weather Information
Wind Direction
  130 °
Wind Speed
  05 kt (6 mph)
Wind Gust
  00 kt (0 mph)
Altimeter
29.98 in
Visibility
10 SM
Temperature
08° C
46° F
Dewpoint
01° C
34° F
Humidity
62%
1hr Rain Fall
00.00 in.
24hr Rain Fall
00.00 in.
Sky Condition
Clear
VFR

METAR KI69 221616Z AUTO 13005KT 10SM CLR 08/01 A2998 RMK AO1

*Background is not an actual portrayal of the airport.